Time;durP1;ratioP1;P1;durP2;ratioP2;P2;SDS_P1;SDS_P2;PMS_P1;PMS_P2;Temp;Humidity;BMP_temperature;BMP_pressure;BME280_temperature;BME280_humidity;BME280_pressure;Samples;Min_cycle;Max_cycle;Signal;HPM_P1;HPM_P2
2022/01/28 00:01:38;;;;;;;;;;;3.40;99.90;;;;;;6167117;23;20317;-88
2022/01/28 00:04:15;;;;;;;;;;;3.00;99.90;;;;;;6167793;23;19997;-88
2022/01/28 00:06:41;;;;;;;;;;;4.40;99.90;;;;;;6190653;23;19916;-88
2022/01/28 00:09:06;;;;;;;;;;;3.30;99.90;;;;;;6190409;23;19926;-87
2022/01/28 00:11:34;;;;;;;;;;;3.40;99.90;;;;;;6165667;23;19967;-88
2022/01/28 00:14:17;;;;;;;;;;;3.60;99.90;;;;;;6190746;23;19951;-87
2022/01/28 00:38:54;;;;;;;;;;;4.60;99.90;;;;;;6194121;23;19926;-87
2022/01/28 00:41:17;;;;;;;;;;;3.60;99.90;;;;;;6189255;23;19916;-87
2022/01/28 00:43:43;;;;;;;;;;;3.70;99.90;;;;;;6191014;23;19969;-88
2022/01/28 00:46:08;;;;;;;;;;;2.80;99.90;;;;;;6165850;23;20330;-88
2022/01/28 00:48:36;;;;;;;;;;;4.00;99.90;;;;;;6190033;23;20288;-87
2022/01/28 00:51:02;;;;;;;;;;;2.60;99.90;;;;;;6165633;23;19916;-87
2022/01/28 00:53:29;;;;;;;;;;;3.40;99.90;;;;;;6215556;23;19923;-88
2022/01/28 00:55:57;;;;;;;;;;;3.70;99.90;;;;;;6215088;23;19916;-88
2022/01/28 00:58:25;;;;;;;;;;;3.50;99.90;;;;;;6190319;23;20256;-89
2022/01/28 01:00:53;;;;;;;;;;;3.50;99.90;;;;;;6165995;23;19922;-87
2022/01/28 01:03:29;;;;;;;;;;;3.70;99.90;;;;;;6214908;23;19951;-88
2022/01/28 01:05:54;;;;;;;;;;;3.40;99.90;;;;;;6190620;23;19923;-87
2022/01/28 01:08:22;;;;;;;;;;;4.30;99.90;;;;;;6165068;23;19916;-87
2022/01/28 01:10:50;;;;;;;;;;;3.30;99.90;;;;;;6190457;23;19916;-87
2022/01/28 01:13:23;;;;;;;;;;;3.90;99.90;;;;;;6165710;23;19916;-89
2022/01/28 01:15:56;;;;;;;;;;;4.20;99.90;;;;;;6189934;23;19943;-87
2022/01/28 01:18:28;;;;;;;;;;;3.70;99.90;;;;;;6166432;23;19920;-87
2022/01/28 01:21:08;;;;;;;;;;;4.80;99.90;;;;;;6166292;23;19995;-89
2022/01/28 01:23:37;;;;;;;;;;;4.10;99.90;;;;;;6193126;23;19920;-87
2022/01/28 01:28:34;;;;;;;;;;;3.60;99.90;;;;;;6189560;23;19920;-88
2022/01/28 01:31:02;;;;;;;;;;;5.00;99.90;;;;;;6189809;23;19920;-87
2022/01/28 01:33:30;;;;;;;;;;;4.40;99.90;;;;;;6214556;23;19916;-87
2022/01/28 01:35:58;;;;;;;;;;;5.00;99.90;;;;;;6165969;23;19915;-88
2022/01/28 01:38:26;;;;;;;;;;;3.70;99.90;;;;;;6164461;23;19920;-88
2022/01/28 01:40:58;;;;;;;;;;;4.30;99.90;;;;;;6165626;23;19915;-88
2022/01/28 01:46:18;;;;;;;;;;;3.90;99.90;;;;;;6190541;23;19915;-87
2022/01/28 01:54:12;;;;;;;;;;;5.10;99.90;;;;;;6193851;23;19920;-87
2022/01/28 01:56:39;;;;;;;;;;;3.90;99.90;;;;;;6189367;23;19966;-88
2022/01/28 01:59:07;;;;;;;;;;;5.30;99.90;;;;;;6189106;23;19919;-87
2022/01/28 02:01:35;;;;;;;;;;;3.30;99.90;;;;;;6164927;23;19923;-87
2022/01/28 02:04:00;;;;;;;;;;;4.80;99.90;;;;;;6165290;23;19916;-88
2022/01/28 02:06:26;;;;;;;;;;;4.70;99.90;;;;;;6189188;23;19920;-87
2022/01/28 02:08:54;;;;;;;;;;;3.60;99.90;;;;;;6214106;23;19916;-87
2022/01/28 02:11:19;;;;;;;;;;;5.10;99.90;;;;;;6165224;23;20338;-87
2022/01/28 02:13:51;;;;;;;;;;;4.80;99.90;;;;;;6164523;23;19939;-86
2022/01/28 02:16:17;;;;;;;;;;;3.80;99.90;;;;;;6165138;23;19920;-88
2022/01/28 02:18:45;;;;;;;;;;;5.40;99.90;;;;;;6164609;23;20375;-88
2022/01/28 02:21:15;;;;;;;;;;;3.60;99.90;;;;;;6164893;23;19916;-87
2022/01/28 02:23:43;;;;;;;;;;;3.90;99.90;;;;;;6189908;23;19916;-87
2022/01/28 02:26:17;;;;;;;;;;;5.20;99.90;;;;;;6164884;23;19995;-86
2022/01/28 02:28:46;;;;;;;;;;;4.00;99.90;;;;;;6191473;23;19943;-88
2022/01/28 02:31:12;;;;;;;;;;;3.60;99.90;;;;;;6164976;23;19924;-88
2022/01/28 02:33:38;;;;;;;;;;;3.80;99.90;;;;;;6164832;23;19916;-89
2022/01/28 02:36:06;;;;;;;;;;;3.20;99.90;;;;;;6214879;23;19916;-88
2022/01/28 02:38:41;;;;;;;;;;;;;;;;;;;;;
2022/01/28 02:41:09;;;;;;;;;;;4.60;99.90;;;;;;6214424;23;19962;-87
2022/01/28 02:43:43;;;;;;;;;;;4.20;99.90;;;;;;6214229;23;19916;-87
2022/01/28 02:46:18;;;;;;;;;;;4.90;99.90;;;;;;6166618;23;19916;-88
2022/01/28 02:49:01;;;;;;;;;;;4.30;99.90;;;;;;6189088;23;19970;-89
2022/01/28 02:51:29;;;;;;;;;;;4.20;99.90;;;;;;6167851;23;19920;-89
2022/01/28 02:54:13;;;;;;;;;;;4.10;99.90;;;;;;6164363;23;19915;-88
2022/01/28 02:56:48;;;;;;;;;;;4.70;99.90;;;;;;6167193;23;19916;-88
2022/01/28 02:59:14;;;;;;;;;;;4.30;99.90;;;;;;6166629;23;20404;-87
2022/01/28 03:01:39;;;;;;;;;;;3.80;99.90;;;;;;6164546;23;19916;-87
2022/01/28 03:04:07;;;;;;;;;;;4.20;99.90;;;;;;6189296;23;19916;-89
2022/01/28 03:06:35;;;;;;;;;;;4.60;99.90;;;;;;6166510;23;19916;-88
2022/01/28 03:09:13;;;;;;;;;;;4.20;99.90;;;;;;6190846;23;19915;-88
2022/01/28 03:11:44;;;;;;;;;;;5.20;99.90;;;;;;6193648;23;19916;-87
2022/01/28 03:14:18;;;;;;;;;;;4.10;99.90;;;;;;6192148;23;19923;-88
2022/01/28 03:19:28;;;;;;;;;;;4.30;99.90;;;;;;6194002;23;19986;-88
2022/01/28 03:21:59;;;;;;;;;;;5.00;99.90;;;;;;6191106;23;19951;-89
2022/01/28 03:24:26;;;;;;;;;;;4.30;99.90;;;;;;6192045;23;19916;-88
2022/01/28 03:26:56;;;;;;;;;;;4.60;99.90;;;;;;6166015;23;19974;-88
2022/01/28 03:29:24;;;;;;;;;;;4.10;99.90;;;;;;6166665;23;20321;-88
2022/01/28 03:31:49;;;;;;;;;;;3.60;99.90;;;;;;6166347;23;19991;-88
2022/01/28 03:34:17;;;;;;;;;;;4.10;99.90;;;;;;6190600;23;19967;-88
2022/01/28 03:36:43;;;;;;;;;;;5.10;99.90;;;;;;6166029;23;19922;-88
2022/01/28 03:39:10;;;;;;;;;;;4.10;99.90;;;;;;6165757;23;19955;-86
2022/01/28 03:41:48;;;;;;;;;;;5.40;99.90;;;;;;6167831;23;19970;-88
2022/01/28 03:44:16;;;;;;;;;;;3.50;99.90;;;;;;6166274;23;19915;-88
2022/01/28 03:46:42;;;;;;;;;;;4.20;99.90;;;;;;6191183;23;19959;-88
2022/01/28 03:49:09;;;;;;;;;;;3.90;99.90;;;;;;6165724;23;19916;-87
2022/01/28 03:51:37;;;;;;;;;;;3.60;99.90;;;;;;6165979;23;20004;-88
2022/01/28 03:54:05;;;;;;;;;;;3.60;99.90;;;;;;6166221;23;19920;-87
2022/01/28 03:56:30;;;;;;;;;;;5.00;99.90;;;;;;6190691;23;19954;-88
2022/01/28 03:58:56;;;;;;;;;;;4.20;99.90;;;;;;6165658;23;19924;-88
2022/01/28 04:01:28;;;;;;;;;;;4.40;99.90;;;;;;6215773;23;19926;-88
2022/01/28 04:12:08;;;;;;;;;;;4.40;99.90;;;;;;6150773;23;19962;-87
2022/01/28 04:17:27;;;;;;;;;;;3.50;99.90;;;;;;6169969;23;19923;-88
2022/01/28 04:19:55;;;;;;;;;;;4.00;99.90;;;;;;6165234;23;20245;-88
2022/01/28 04:22:26;;;;;;;;;;;3.70;99.90;;;;;;6165904;23;19973;-87
2022/01/28 04:24:59;;;;;;;;;;;3.40;99.90;;;;;;6166128;23;19916;-88
2022/01/28 04:27:25;;;;;;;;;;;3.70;99.90;;;;;;6166874;23;20291;-89
2022/01/28 04:29:51;;;;;;;;;;;3.70;99.90;;;;;;6165677;23;19920;-88
2022/01/28 04:32:18;;;;;;;;;;;3.00;99.90;;;;;;6190207;23;19924;-88
2022/01/28 04:34:44;;;;;;;;;;;3.90;99.90;;;;;;6190439;23;20285;-89
2022/01/28 04:37:18;;;;;;;;;;;3.20;99.90;;;;;;6165467;23;19916;-89
2022/01/28 04:39:56;;;;;;;;;;;3.70;99.90;;;;;;6190363;23;19923;-89
2022/01/28 04:42:53;;;;;;;;;;;2.50;99.90;;;;;;6189987;23;19939;-87
2022/01/28 04:45:32;;;;;;;;;;;3.00;99.90;;;;;;6190017;23;19923;-89
2022/01/28 04:51:13;;;;;;;;;;;3.50;99.90;;;;;;6191118;23;19916;-87
2022/01/28 04:59:03;;;;;;;;;;;3.60;99.90;;;;;;6150079;23;19990;-87
2022/01/28 05:01:58;;;;;;;;;;;;;;;;;;;;;
2022/01/28 05:07:14;;;;;;;;;;;2.80;99.90;;;;;;6190300;23;19916;-87
2022/01/28 05:10:17;;;;;;;;;;;4.30;99.90;;;;;;6195116;23;20359;-88
2022/01/28 05:23:21;;;;;;;;;;;3.90;99.90;;;;;;6190096;23;19943;-88
2022/01/28 05:28:46;;;;;;;;;;;3.00;99.90;;;;;;6099776;23;19988;-87
2022/01/28 05:31:14;;;;;;;;;;;3.20;99.90;;;;;;6138042;23;19920;-88
2022/01/28 05:33:40;;;;;;;;;;;3.20;99.90;;;;;;6190150;23;19922;-87
2022/01/28 05:36:10;;;;;;;;;;;3.30;99.90;;;;;;6164511;23;19915;-88
2022/01/28 05:38:36;;;;;;;;;;;3.10;99.90;;;;;;6189333;23;19999;-88
2022/01/28 05:41:04;;;;;;;;;;;3.10;99.90;;;;;;6164621;23;19939;-88
2022/01/28 05:43:32;;;;;;;;;;;2.90;99.90;;;;;;6165167;23;19916;-88
2022/01/28 05:46:07;;;;;;;;;;;3.80;99.90;;;;;;6164999;23;19916;-88
2022/01/28 05:48:38;;;;;;;;;;;3.00;99.90;;;;;;6165186;23;19986;-88
2022/01/28 05:51:06;;;;;;;;;;;4.40;99.90;;;;;;6190333;23;19916;-89
2022/01/28 05:53:33;;;;;;;;;;;3.00;99.90;;;;;;6164883;23;20288;-88
2022/01/28 05:55:59;;;;;;;;;;;3.50;99.90;;;;;;6165238;23;19927;-88
2022/01/28 05:58:25;;;;;;;;;;;3.80;99.90;;;;;;6214338;23;19924;-88
2022/01/28 06:00:51;;;;;;;;;;;3.80;99.90;;;;;;6164888;23;20283;-87
2022/01/28 06:03:18;;;;;;;;;;;3.50;99.90;;;;;;6164827;23;19927;-89
2022/01/28 06:05:46;;;;;;;;;;;3.40;99.90;;;;;;6189368;23;19927;-88
2022/01/28 06:08:14;;;;;;;;;;;4.40;99.90;;;;;;6189218;23;19991;-88
2022/01/28 06:10:47;;;;;;;;;;;4.20;99.90;;;;;;6189305;23;19922;-88
2022/01/28 06:13:16;;;;;;;;;;;4.40;99.90;;;;;;6165083;23;19916;-89
2022/01/28 06:15:47;;;;;;;;;;;5.50;99.90;;;;;;6214314;23;19923;-87
2022/01/28 06:18:13;;;;;;;;;;;3.40;99.90;;;;;;6189795;23;19927;-87
2022/01/28 06:20:38;;;;;;;;;;;4.70;99.90;;;;;;6164693;23;19916;-88
2022/01/28 06:23:07;;;;;;;;;;;5.20;99.90;;;;;;6214754;23;19982;-88
2022/01/28 06:25:32;;;;;;;;;;;4.20;99.90;;;;;;6190452;23;19958;-87
2022/01/28 06:28:00;;;;;;;;;;;3.70;99.90;;;;;;6189231;23;19916;-87
2022/01/28 06:30:29;;;;;;;;;;;4.30;99.90;;;;;;6192062;23;19951;-88
2022/01/28 06:33:03;;;;;;;;;;;4.20;99.90;;;;;;6170292;23;19918;-87
2022/01/28 06:35:31;;;;;;;;;;;5.00;99.90;;;;;;6196025;23;19922;-88
2022/01/28 06:37:57;;;;;;;;;;;4.60;99.90;;;;;;6169780;23;20005;-87
2022/01/28 06:40:25;;;;;;;;;;;5.50;99.90;;;;;;6170262;23;19915;-87
2022/01/28 06:42:51;;;;;;;;;;;4.50;99.90;;;;;;6171674;23;19923;-88
2022/01/28 06:45:19;;;;;;;;;;;4.70;99.90;;;;;;6196256;23;20233;-87
2022/01/28 06:47:47;;;;;;;;;;;5.40;99.90;;;;;;6196811;23;19966;-89
2022/01/28 06:50:13;;;;;;;;;;;4.10;99.90;;;;;;6171922;23;19916;-88
2022/01/28 06:52:40;;;;;;;;;;;3.20;99.90;;;;;;6171169;23;19922;-87
2022/01/28 06:55:06;;;;;;;;;;;3.80;99.90;;;;;;6171728;23;20280;-87
2022/01/28 06:57:34;;;;;;;;;;;3.80;99.90;;;;;;6171172;23;19916;-87
2022/01/28 07:00:00;;;;;;;;;;;4.40;99.90;;;;;;6172146;23;19919;-88
2022/01/28 07:02:28;;;;;;;;;;;3.50;99.90;;;;;;6171287;23;20244;-86
2022/01/28 07:04:56;;;;;;;;;;;3.30;99.90;;;;;;6196431;23;19916;-87
2022/01/28 07:07:22;;;;;;;;;;;2.70;99.90;;;;;;6171860;23;19916;-87
2022/01/28 07:09:48;;;;;;;;;;;4.00;99.90;;;;;;6171142;23;20225;-87
2022/01/28 07:12:14;;;;;;;;;;;3.90;99.90;;;;;;6171133;23;19922;-87
2022/01/28 07:14:46;;;;;;;;;;;2.50;99.90;;;;;;6171361;23;19954;-87
2022/01/28 07:17:12;;;;;;;;;;;2.60;99.90;;;;;;6197437;23;19915;-87
2022/01/28 07:19:40;;;;;;;;;;;3.00;99.90;;;;;;6170858;23;19941;-88
2022/01/28 07:22:06;;;;;;;;;;;2.60;99.90;;;;;;6196142;23;19962;-89
2022/01/28 07:24:37;;;;;;;;;;;2.90;99.90;;;;;;6196325;23;19922;-87
2022/01/28 07:27:05;;;;;;;;;;;2.50;99.90;;;;;;6172191;23;19916;-89
2022/01/28 07:29:39;;;;;;;;;;;2.40;99.90;;;;;;6171673;23;20223;-89
2022/01/28 07:32:10;;;;;;;;;;;2.00;99.90;;;;;;6167418;23;19927;-89
2022/01/28 07:34:36;;;;;;;;;;;2.40;99.90;;;;;;6167107;23;19916;-88
2022/01/28 07:37:04;;;;;;;;;;;2.10;99.90;;;;;;6165146;23;19962;-88
2022/01/28 07:43:11;;;;;;;;;;;;;;;;;;;;;
2022/01/28 07:46:15;;;;;;;;;;;2.40;99.90;;;;;;6192451;23;19938;-88
2022/01/28 07:48:46;;;;;;;;;;;2.60;99.90;;;;;;6189823;23;19922;-88
2022/01/28 07:51:35;;;;;;;;;;;3.50;99.90;;;;;;6189597;23;19915;-90
2022/01/28 07:54:08;;;;;;;;;;;2.70;99.90;;;;;;6167859;23;19986;-89
2022/01/28 07:59:45;;;;;;;;;;;2.80;99.90;;;;;;6173106;23;20333;-89
2022/01/28 08:02:34;;;;;;;;;;;3.60;99.90;;;;;;6194058;23;19920;-89
2022/01/28 08:05:19;;;;;;;;;;;3.60;99.90;;;;;;6193301;23;20407;-91
2022/01/28 08:07:45;;;;;;;;;;;3.10;99.90;;;;;;6189958;23;19916;-89
2022/01/28 08:10:16;;;;;;;;;;;2.60;99.90;;;;;;6164764;23;19926;-90
2022/01/28 08:13:02;;;;;;;;;;;4.20;99.90;;;;;;6165915;23;19966;-88
2022/01/28 08:15:42;;;;;;;;;;;3.20;99.90;;;;;;6166877;23;19958;-87
2022/01/28 08:18:18;;;;;;;;;;;;;;;;;;;;;
2022/01/28 08:21:04;;;;;;;;;;;;;;;;;;;;;
2022/01/28 08:23:35;;;;;;;;;;;3.20;99.90;;;;;;6192949;23;20325;-90
2022/01/28 08:26:18;;;;;;;;;;;;;;;;;;;;;
2022/01/28 08:28:49;;;;;;;;;;;3.70;99.90;;;;;;6191902;23;19920;-89
2022/01/28 08:31:32;;;;;;;;;;;3.10;99.90;;;;;;6165270;23;19959;-89
2022/01/28 08:34:03;;;;;;;;;;;3.60;99.90;;;;;;6164744;23;20309;-89
2022/01/28 08:36:34;;;;;;;;;;;3.50;99.90;;;;;;6165106;23;19923;-90
2022/01/28 08:39:05;;;;;;;;;;;3.60;99.90;;;;;;6165047;23;20286;-88
2022/01/28 08:41:36;;;;;;;;;;;3.50;99.90;;;;;;6165483;23;19920;-88
2022/01/28 08:44:02;;;;;;;;;;;3.40;99.90;;;;;;6165399;23;19970;-90
2022/01/28 08:49:21;;;;;;;;;;;4.50;99.90;;;;;;6193281;23;19943;-89
2022/01/28 08:52:06;;;;;;;;;;;;;;;;;;;;;
2022/01/28 08:54:34;;;;;;;;;;;4.10;99.90;;;;;;6191867;23;20320;-88
2022/01/28 08:56:59;;;;;;;;;;;4.70;99.90;;;;;;6164662;23;19916;-90
2022/01/28 08:59:27;;;;;;;;;;;5.00;99.90;;;;;;6188750;23;20378;-88
2022/01/28 09:02:00;;;;;;;;;;;4.20;99.90;;;;;;6164041;23;19958;-90
2022/01/28 09:04:29;;;;;;;;;;;4.70;99.90;;;;;;6164653;23;19916;-90
2022/01/28 09:06:54;;;;;;;;;;;4.10;99.90;;;;;;6190042;23;19915;-88
2022/01/28 09:09:25;;;;;;;;;;;5.70;99.90;;;;;;6213029;23;19920;-89
2022/01/28 09:12:27;;;;;;;;;;;5.50;99.90;;;;;;6164529;23;19923;-89
2022/01/28 09:15:00;;;;;;;;;;;5.60;99.90;;;;;;6188815;23;19916;-89
2022/01/28 09:17:34;;;;;;;;;;;4.50;99.90;;;;;;6164363;23;19916;-90
2022/01/28 09:20:02;;;;;;;;;;;4.40;99.90;;;;;;6165427;23;20390;-87
2022/01/28 09:22:31;;;;;;;;;;;4.60;99.90;;;;;;6214269;23;19916;-89
2022/01/28 09:27:57;;;;;;;;;;;4.50;99.90;;;;;;6187765;23;20274;-88
2022/01/28 09:30:33;;;;;;;;;;;5.30;99.90;;;;;;6166538;23;19962;-89
2022/01/28 09:33:09;;;;;;;;;;;5.20;99.90;;;;;;6170463;23;20244;-89
2022/01/28 09:35:34;;;;;;;;;;;5.30;99.90;;;;;;6169763;23;19916;-89
2022/01/28 09:38:00;;;;;;;;;;;5.60;99.90;;;;;;6193726;23;19942;-89
2022/01/28 09:40:31;;;;;;;;;;;5.70;99.90;;;;;;6169190;23;20224;-88
2022/01/28 09:42:59;;;;;;;;;;;6.30;99.90;;;;;;6194509;23;19919;-89
2022/01/28 09:45:42;;;;;;;;;;;6.20;99.90;;;;;;6218957;23;19915;-89
2022/01/28 09:48:08;;;;;;;;;;;7.10;99.90;;;;;;6193880;23;20283;-90
2022/01/28 09:50:36;;;;;;;;;;;7.30;99.90;;;;;;6193223;23;19915;-89
2022/01/28 09:53:04;;;;;;;;;;;6.80;99.90;;;;;;6168912;23;19919;-88
2022/01/28 09:55:58;;;;;;;;;;;7.10;99.90;;;;;;6168778;23;19916;-88
2022/01/28 09:58:24;;;;;;;;;;;7.00;99.90;;;;;;6193492;23;19923;-88
2022/01/28 10:00:55;;;;;;;;;;;6.80;99.90;;;;;;6193398;23;20001;-89
2022/01/28 10:03:20;;;;;;;;;;;7.40;99.90;;;;;;6194215;23;20380;-88
2022/01/28 10:05:50;;;;;;;;;;;6.80;99.90;;;;;;6168694;23;19946;-88
2022/01/28 10:08:20;;;;;;;;;;;6.70;99.90;;;;;;6169240;23;19922;-89
2022/01/28 10:13:48;;;;;;;;;;;6.50;99.90;;;;;;6217639;23;19916;-88
2022/01/28 10:16:18;;;;;;;;;;;7.30;99.90;;;;;;6169436;23;19922;-89
2022/01/28 10:18:50;;;;;;;;;;;6.80;99.90;;;;;;6168763;23;19919;-89
2022/01/28 10:21:25;;;;;;;;;;;;;;;;;;;;;
2022/01/28 10:24:04;;;;;;;;;;;;;;;;;;;;;
2022/01/28 10:26:49;;;;;;;;;;;;;;;;;;;;;
2022/01/28 10:29:17;;;;;;;;;;;7.00;99.90;;;;;;6218360;23;19920;-89
2022/01/28 10:31:47;;;;;;;;;;;7.10;99.90;;;;;;6192800;23;19919;-89
2022/01/28 10:34:16;;;;;;;;;;;7.80;99.90;;;;;;6169098;23;20332;-88
2022/01/28 10:36:46;;;;;;;;;;;7.30;99.90;;;;;;6168288;23;19916;-86
2022/01/28 10:39:12;;;;;;;;;;;7.30;99.90;;;;;;6168661;23;19919;-88
2022/01/28 10:41:40;;;;;;;;;;;7.70;99.90;;;;;;6192887;23;19986;-88
2022/01/28 10:44:15;;;;;;;;;;;;;;;;;;;;;
2022/01/28 10:46:54;;;;;;;;;;;;;;;;;;;;;
2022/01/28 10:49:32;;;;;;;;;;;;;;;;;;;;;
2022/01/28 10:52:25;;;;;;;;;;;8.10;99.90;;;;;;6195026;23;19954;-88
2022/01/28 10:54:58;;;;;;;;;;;8.50;99.90;;;;;;6196376;23;20332;-89
2022/01/28 10:57:26;;;;;;;;;;;7.90;99.90;;;;;;6168595;23;19994;-89
2022/01/28 10:59:54;;;;;;;;;;;7.90;99.90;;;;;;6168152;23;19920;-88
2022/01/28 11:02:23;;;;;;;;;;;8.40;99.90;;;;;;6193022;23;19916;-89
2022/01/28 11:04:49;;;;;;;;;;;9.30;99.90;;;;;;6168891;23;19915;-89
2022/01/28 11:07:20;;;;;;;;;;;9.70;99.90;;;;;;6168156;23;19938;-89
2022/01/28 11:09:48;;;;;;;;;;;8.80;99.90;;;;;;6193893;23;19916;-89
2022/01/28 11:12:21;;;;;;;;;;;10.20;99.90;;;;;;6193033;23;19950;-88
2022/01/28 11:14:57;;;;;;;;;;;;;;;;;;;;;
2022/01/28 11:17:25;;;;;;;;;;;9.10;99.90;;;;;;6195019;23;19969;-88
2022/01/28 11:19:52;;;;;;;;;;;9.20;99.90;;;;;;6167884;23;19926;-88
2022/01/28 11:22:43;;;;;;;;;;;10.00;99.90;;;;;;6167821;23;20313;-89
2022/01/28 11:25:25;;;;;;;;;;;10.20;99.70;;;;;;6169387;23;19965;-89
2022/01/28 11:27:53;;;;;;;;;;;10.20;99.90;;;;;;6171853;23;19916;-88
2022/01/28 11:30:25;;;;;;;;;;;10.20;98.20;;;;;;6194710;23;19922;-88
2022/01/28 11:33:00;;;;;;;;;;;10.00;99.90;;;;;;6170627;23;19975;-89
2022/01/28 11:35:27;;;;;;;;;;;9.80;99.90;;;;;;6170548;23;19916;-88
2022/01/28 11:38:01;;;;;;;;;;;10.20;99.90;;;;;;6194615;23;20239;-88
2022/01/28 11:40:29;;;;;;;;;;;9.80;99.90;;;;;;6171076;23;19920;-88
2022/01/28 11:43:23;;;;;;;;;;;8.70;99.90;;;;;;6169451;23;19922;-88
2022/01/28 11:46:08;;;;;;;;;;;8.80;99.90;;;;;;6190287;23;19966;-89
2022/01/28 11:48:54;;;;;;;;;;;8.60;99.90;;;;;;6194956;23;20316;-89
2022/01/28 11:51:30;;;;;;;;;;;8.50;99.90;;;;;;6194226;23;19942;-88
2022/01/28 11:53:56;;;;;;;;;;;8.70;99.90;;;;;;6171145;23;19970;-89
2022/01/28 11:56:24;;;;;;;;;;;8.60;99.90;;;;;;6169688;23;19922;-88
2022/01/28 11:58:55;;;;;;;;;;;9.20;99.90;;;;;;6169957;23;19986;-89
2022/01/28 12:01:43;;;;;;;;;;;8.90;99.90;;;;;;6170052;23;19923;-89
2022/01/28 12:04:41;;;;;;;;;;;8.70;99.90;;;;;;6219274;23;19916;-89
2022/01/28 12:07:06;;;;;;;;;;;8.60;99.90;;;;;;6219206;23;19977;-88
2022/01/28 12:09:35;;;;;;;;;;;8.90;99.90;;;;;;6193829;23;19987;-88
2022/01/28 12:12:08;;;;;;;;;;;8.40;99.90;;;;;;6194758;23;19915;-87
2022/01/28 12:15:03;;;;;;;;;;;8.30;99.90;;;;;;6170391;23;19982;-88
2022/01/28 12:17:53;;;;;;;;;;;8.20;99.90;;;;;;6193804;23;19915;-87
2022/01/28 12:20:23;;;;;;;;;;;8.00;99.90;;;;;;6218263;23;20482;-90
2022/01/28 12:23:25;;;;;;;;;;;7.40;99.90;;;;;;6170040;23;19919;-88
2022/01/28 12:25:53;;;;;;;;;;;7.70;99.90;;;;;;6193255;23;19919;-89
2022/01/28 12:28:44;;;;;;;;;;;7.60;99.90;;;;;;6193595;23;20326;-88
2022/01/28 12:31:14;;;;;;;;;;;7.90;99.90;;;;;;6218920;23;20206;-87
2022/01/28 12:33:43;;;;;;;;;;;8.00;99.90;;;;;;6169761;23;19922;-88
2022/01/28 12:36:21;;;;;;;;;;;8.20;99.90;;;;;;6169164;23;19922;-88
2022/01/28 12:39:05;;;;;;;;;;;8.20;99.90;;;;;;6194493;23;20233;-87
2022/01/28 12:41:40;;;;;;;;;;;8.40;99.90;;;;;;6218632;23;19969;-89
2022/01/28 12:44:06;;;;;;;;;;;9.10;99.90;;;;;;6170799;23;19930;-88
2022/01/28 12:46:42;;;;;;;;;;;;;;;;;;;;;
2022/01/28 12:49:15;;;;;;;;;;;8.30;99.90;;;;;;6195639;23;19915;-89
2022/01/28 12:51:41;;;;;;;;;;;8.70;99.90;;;;;;6194101;23;20332;-88
2022/01/28 12:54:09;;;;;;;;;;;7.90;99.90;;;;;;6168849;23;20010;-88
2022/01/28 12:56:40;;;;;;;;;;;8.40;99.90;;;;;;6219007;23;19915;-88
2022/01/28 12:59:06;;;;;;;;;;;8.10;99.90;;;;;;6168727;23;20320;-88
2022/01/28 13:01:39;;;;;;;;;;;8.00;99.90;;;;;;6193672;23;19916;-89
2022/01/28 13:04:12;;;;;;;;;;;8.20;99.90;;;;;;6170094;23;19916;-89
2022/01/28 13:06:59;;;;;;;;;;;7.80;99.90;;;;;;6169344;23;19919;-88
2022/01/28 13:09:33;;;;;;;;;;;7.80;99.90;;;;;;6218077;23;19922;-88
2022/01/28 13:12:02;;;;;;;;;;;7.10;99.90;;;;;;6170518;23;19915;-88
2022/01/28 13:14:37;;;;;;;;;;;7.40;99.90;;;;;;6168760;23;20352;-89
2022/01/28 13:17:05;;;;;;;;;;;7.10;99.90;;;;;;6170344;23;20116;-89
2022/01/28 13:19:36;;;;;;;;;;;7.40;99.90;;;;;;6168510;23;19920;-88
2022/01/28 13:22:07;;;;;;;;;;;8.10;99.90;;;;;;6168836;23;20283;-89
2022/01/28 13:24:38;;;;;;;;;;;7.40;99.90;;;;;;6193929;23;19916;-89
2022/01/28 13:27:07;;;;;;;;;;;7.70;99.90;;;;;;6194818;23;20358;-89
2022/01/28 13:29:38;;;;;;;;;;;7.60;99.90;;;;;;6193570;23;19916;-88
2022/01/28 13:32:08;;;;;;;;;;;7.60;99.90;;;;;;6193038;23;19923;-89
2022/01/28 13:34:52;;;;;;;;;;;7.60;99.90;;;;;;6168887;23;19915;-87
2022/01/28 13:37:38;;;;;;;;;;;7.50;99.90;;;;;;6193771;23;20233;-88
2022/01/28 13:40:06;;;;;;;;;;;7.00;99.90;;;;;;6169640;23;19927;-88
2022/01/28 13:42:36;;;;;;;;;;;7.40;99.90;;;;;;6168506;23;19952;-88
2022/01/28 13:45:04;;;;;;;;;;;7.20;99.90;;;;;;6168788;23;19916;-88
2022/01/28 13:47:53;;;;;;;;;;;8.90;99.90;;;;;;6193557;23;19947;-88
2022/01/28 13:50:40;;;;;;;;;;;7.80;99.90;;;;;;6202454;23;19915;-88
2022/01/28 13:56:04;;;;;;;;;;;6.90;99.90;;;;;;6218292;23;19915;-88
2022/01/28 13:58:43;;;;;;;;;;;7.50;99.90;;;;;;6195264;23;20276;-89
2022/01/28 14:01:17;;;;;;;;;;;8.30;99.90;;;;;;6193138;23;19916;-90
2022/01/28 14:03:59;;;;;;;;;;;8.80;99.90;;;;;;6218382;23;19920;-89
2022/01/28 14:06:30;;;;;;;;;;;7.60;99.90;;;;;;6218519;23;19915;-88
2022/01/28 14:09:09;;;;;;;;;;;7.40;99.90;;;;;;6168829;23;19919;-88
2022/01/28 14:12:04;;;;;;;;;;;7.30;99.90;;;;;;6193838;23;19915;-87
2022/01/28 14:14:34;;;;;;;;;;;7.20;99.90;;;;;;6218481;23;19922;-88
2022/01/28 14:17:09;;;;;;;;;;;7.10;99.90;;;;;;6167785;23;20328;-87
2022/01/28 14:19:35;;;;;;;;;;;7.00;99.90;;;;;;6169527;23;20316;-89
2022/01/28 14:22:08;;;;;;;;;;;7.40;99.90;;;;;;6193408;23;20125;-90
2022/01/28 14:24:39;;;;;;;;;;;7.40;99.90;;;;;;6169604;23;19972;-90
2022/01/28 14:27:24;;;;;;;;;;;7.70;99.90;;;;;;6168490;23;19923;-89
2022/01/28 14:29:52;;;;;;;;;;;7.10;99.90;;;;;;6195082;23;20030;-88
2022/01/28 14:32:22;;;;;;;;;;;7.80;99.90;;;;;;6168526;23;19923;-89
2022/01/28 14:34:50;;;;;;;;;;;7.80;99.90;;;;;;6168453;23;19927;-88
2022/01/28 14:37:18;;;;;;;;;;;6.90;99.90;;;;;;6169182;23;19915;-89
2022/01/28 14:39:44;;;;;;;;;;;7.10;99.90;;;;;;6168001;23;19919;-87
2022/01/28 14:42:17;;;;;;;;;;;6.80;99.90;;;;;;6192794;23;19923;-87
2022/01/28 14:44:46;;;;;;;;;;;6.40;99.90;;;;;;6168170;23;19922;-88
2022/01/28 14:47:14;;;;;;;;;;;7.00;99.90;;;;;;6168419;23;20347;-88
2022/01/28 14:49:39;;;;;;;;;;;7.60;99.90;;;;;;6193442;23;19986;-88
2022/01/28 14:52:11;;;;;;;;;;;6.60;99.90;;;;;;6193159;23;20225;-88
2022/01/28 14:54:39;;;;;;;;;;;6.70;99.90;;;;;;6168859;23;19955;-88
2022/01/28 14:57:22;;;;;;;;;;;7.10;99.90;;;;;;6191863;23;19926;-89
2022/01/28 15:00:07;;;;;;;;;;;6.50;99.90;;;;;;6194660;23;19923;-90
2022/01/28 15:02:36;;;;;;;;;;;6.20;99.90;;;;;;6195681;23;20042;-87
2022/01/28 15:05:07;;;;;;;;;;;6.10;99.90;;;;;;6194876;23;19915;-89
2022/01/28 15:07:49;;;;;;;;;;;7.10;99.90;;;;;;6170124;23;19915;-90
2022/01/28 15:10:26;;;;;;;;;;;6.80;99.90;;;;;;6196326;23;20229;-88
2022/01/28 15:12:59;;;;;;;;;;;6.40;99.90;;;;;;6171382;23;19915;-88
2022/01/28 15:15:30;;;;;;;;;;;6.80;99.90;;;;;;6171403;23;19915;-89
2022/01/28 15:18:13;;;;;;;;;;;7.40;99.90;;;;;;6169972;23;19930;-88
2022/01/28 15:20:39;;;;;;;;;;;6.40;99.90;;;;;;6198139;23;19915;-88
2022/01/28 15:23:05;;;;;;;;;;;5.90;99.90;;;;;;6170203;23;19990;-88
2022/01/28 15:25:33;;;;;;;;;;;5.90;99.90;;;;;;6194695;23;19987;-87
2022/01/28 15:28:01;;;;;;;;;;;6.70;99.90;;;;;;6169817;23;20256;-89
2022/01/28 15:34:10;;;;;;;;;;;5.40;99.90;;;;;;6195002;23;19938;-88
2022/01/28 15:36:09;;;;;;;;;;;6.20;99.90;;;;;;6198226;23;19920;-89
2022/01/28 15:38:40;;;;;;;;;;;5.80;99.90;;;;;;6195963;23;19933;-87
2022/01/28 15:41:19;;;;;;;;;;;;;;;;;;;;;
2022/01/28 15:43:53;;;;;;;;;;;5.20;99.90;;;;;;6196979;23;19916;-88
2022/01/28 15:46:24;;;;;;;;;;;5.70;99.90;;;;;;6195332;23;19916;-90
2022/01/28 15:49:12;;;;;;;;;;;5.70;99.90;;;;;;6194597;23;19958;-87
2022/01/28 15:51:39;;;;;;;;;;;5.20;99.90;;;;;;6194636;23;19920;-88
2022/01/28 15:54:10;;;;;;;;;;;5.50;99.90;;;;;;6170320;23;20324;-88
2022/01/28 15:56:46;;;;;;;;;;;5.60;99.90;;;;;;6170511;23;20045;-89
2022/01/28 15:59:12;;;;;;;;;;;5.80;99.90;;;;;;6170511;23;19977;-88
2022/01/28 16:01:37;;;;;;;;;;;5.80;99.90;;;;;;6169840;23;20394;-88
2022/01/28 16:04:15;;;;;;;;;;;;;;;;;;;;;
2022/01/28 16:06:44;;;;;;;;;;;5.20;99.90;;;;;;6219401;23;19920;-89
2022/01/28 16:09:18;;;;;;;;;;;5.90;99.90;;;;;;6194804;23;19915;-89
2022/01/28 16:11:59;;;;;;;;;;;5.20;99.90;;;;;;6169865;23;19952;-88
2022/01/28 16:14:29;;;;;;;;;;;5.70;99.90;;;;;;6172490;23;19922;-88
2022/01/28 16:19:52;;;;;;;;;;;;;;;;;;;;;
2022/01/28 16:22:38;;;;;;;;;;;5.00;99.90;;;;;;6196687;23;19920;-89
2022/01/28 16:25:12;;;;;;;;;;;4.50;99.90;;;;;;6169737;23;19958;-89
2022/01/28 16:27:41;;;;;;;;;;;4.90;99.90;;;;;;6194490;23;19950;-89
2022/01/28 16:30:16;;;;;;;;;;;4.70;99.90;;;;;;6194189;23;19950;-88
2022/01/28 16:32:49;;;;;;;;;;;4.80;99.90;;;;;;6169829;23;19919;-90
2022/01/28 16:35:15;;;;;;;;;;;5.70;99.90;;;;;;6171231;23;19915;-88
2022/01/28 16:38:03;;;;;;;;;;;6.00;99.90;;;;;;6194324;23;19996;-88
2022/01/28 16:40:38;;;;;;;;;;;4.70;99.90;;;;;;6219239;23;19923;-89
2022/01/28 16:43:25;;;;;;;;;;;5.40;99.90;;;;;;6170927;23;19915;-88
2022/01/28 16:46:12;;;;;;;;;;;5.20;99.90;;;;;;6194396;23;19955;-87
2022/01/28 16:48:42;;;;;;;;;;;4.80;99.90;;;;;;6197727;23;19994;-89
2022/01/28 16:51:25;;;;;;;;;;;;;;;;;;;;;
2022/01/28 16:53:51;;;;;;;;;;;4.70;99.90;;;;;;6196727;23;19919;-89